Al Ula Domestic Airport

About
Name: Al Ula Domestic Airport
Identifier:  ULH/OEAO
Serves:  Al-Ula
Owner:  State
Public/Private:  Public
Local Time:  17. Sep 11:56 UTC+03
Description: Prince Abdul Majeed bin Abdulaziz Domestic Airport is located 25 kilometres southeast of Al-Ula, Saudi Arabia. It was named after Prince Abdul Majeed bin Abdulaziz.
Source: Wikipedia
Location
Runways
Identifier Length (m/ft) Surface
12/30 10,007/10,007 Asphalt
Statistics
Flights per Day:
1 flights
Distance: 744km (462mi)
Flights delayed:
80% (0 flights per day delayed)
Delay Average: 5 minutes
Current Weather
 37 C (Humidity: 13%)
  4kt (7km/h / 4mph) from 360°
  Few clouds at 4,000 feet (1,219 meter)
  9km (6 mi.)
 METAR OEAO 170800Z 36004KT 9999 FEW040 37/05 Q1013

Current Flights

Arrivals
Number Arrival From Airline
Landed SV1574 08:45  Riyadh  Saudi Arabian Airlines

Current Delays

Departures
N/A
Arrivals
N/A

Destinations

Top Destinations
Airport Flights
per week
Seats
per week
  Riyadh (RUH) 7 593 1 84
  Jeddah (JED) 3 277 0 39

Airlines & Planes

Top Airlines
Airline Flights
per Day
Seats
per Day
  Saudi Arabian Airlines 1 124
Top Plane Types
Model Flights Seats
Airbus A320 1.1/day 25/day 25.333333333333332
Airbus A321 0.6/day 99/day 99